sensor_id;sensor_type;location;lat;lon;timestamp;pressure;altitude;pressure_sealevel;temperature;humidity
47761;BME280;33524;55.434;38.520;2023-03-22T00:02:05;99723.88;;;3.33;88.73
47761;BME280;33524;55.434;38.520;2023-03-22T00:04:31;99721.47;;;3.30;89.01
47761;BME280;33524;55.434;38.520;2023-03-22T00:06:58;99722.62;;;3.24;89.64
47761;BME280;33524;55.434;38.520;2023-03-22T00:09:25;99720.50;;;3.15;90.88
47761;BME280;33524;55.434;38.520;2023-03-22T00:11:51;99718.59;;;3.18;91.12
47761;BME280;33524;55.434;38.520;2023-03-22T00:14:18;99721.53;;;3.28;89.72
47761;BME280;33524;55.434;38.520;2023-03-22T00:16:45;99717.41;;;3.24;89.90
47761;BME280;33524;55.434;38.520;2023-03-22T00:19:12;99725.38;;;3.21;89.89
47761;BME280;33524;55.434;38.520;2023-03-22T00:21:39;99725.97;;;3.10;90.89
47761;BME280;33524;55.434;38.520;2023-03-22T00:24:05;99727.06;;;3.22;89.31
47761;BME280;33524;55.434;38.520;2023-03-22T00:26:33;99720.66;;;3.12;90.56
47761;BME280;33524;55.434;38.520;2023-03-22T00:29:00;99723.56;;;3.06;91.69
47761;BME280;33524;55.434;38.520;2023-03-22T00:31:26;99715.19;;;3.00;91.46
47761;BME280;33524;55.434;38.520;2023-03-22T00:33:53;99720.97;;;3.06;91.51
47761;BME280;33524;55.434;38.520;2023-03-22T00:36:20;99719.47;;;3.01;91.56
47761;BME280;33524;55.434;38.520;2023-03-22T00:38:49;99727.13;;;3.05;91.08
47761;BME280;33524;55.434;38.520;2023-03-22T00:41:20;99731.69;;;2.99;91.14
47761;BME280;33524;55.434;38.520;2023-03-22T00:43:48;99720.53;;;2.97;91.39
47761;BME280;33524;55.434;38.520;2023-03-22T00:46:16;99734.06;;;3.04;90.46
47761;BME280;33524;55.434;38.520;2023-03-22T00:48:44;99726.50;;;2.99;90.02
47761;BME280;33524;55.434;38.520;2023-03-22T00:51:11;99741.25;;;2.99;91.01
47761;BME280;33524;55.434;38.520;2023-03-22T00:53:39;99744.91;;;2.95;91.37
47761;BME280;33524;55.434;38.520;2023-03-22T00:56:11;99731.88;;;2.79;91.63
47761;BME280;33524;55.434;38.520;2023-03-22T00:58:42;99751.19;;;2.91;91.88
47761;BME280;33524;55.434;38.520;2023-03-22T01:01:09;99738.22;;;2.91;90.00
47761;BME280;33524;55.434;38.520;2023-03-22T01:03:40;99753.47;;;2.97;90.91
47761;BME280;33524;55.434;38.520;2023-03-22T01:06:08;99760.56;;;2.93;91.60
47761;BME280;33524;55.434;38.520;2023-03-22T01:08:35;99764.09;;;2.92;91.85
47761;BME280;33524;55.434;38.520;2023-03-22T01:11:04;99762.97;;;2.98;90.95
47761;BME280;33524;55.434;38.520;2023-03-22T01:13:32;99759.59;;;2.96;90.95
47761;BME280;33524;55.434;38.520;2023-03-22T01:16:00;99774.31;;;3.13;89.39
47761;BME280;33524;55.434;38.520;2023-03-22T01:18:26;99773.34;;;2.98;91.66
47761;BME280;33524;55.434;38.520;2023-03-22T01:20:53;99776.72;;;3.00;91.84
47761;BME280;33524;55.434;38.520;2023-03-22T01:23:20;99760.06;;;2.87;91.50
47761;BME280;33524;55.434;38.520;2023-03-22T01:25:46;99787.69;;;3.05;90.90
47761;BME280;33524;55.434;38.520;2023-03-22T01:28:13;99788.94;;;2.98;92.02
47761;BME280;33524;55.434;38.520;2023-03-22T01:30:40;99787.25;;;2.97;92.20
47761;BME280;33524;55.434;38.520;2023-03-22T01:33:08;99789.31;;;2.90;92.66
47761;BME280;33524;55.434;38.520;2023-03-22T01:35:35;99790.16;;;2.91;92.46
47761;BME280;33524;55.434;38.520;2023-03-22T01:38:03;99790.91;;;2.93;92.89
47761;BME280;33524;55.434;38.520;2023-03-22T01:40:31;99795.87;;;2.97;91.98
47761;BME280;33524;55.434;38.520;2023-03-22T01:42:59;99806.44;;;2.94;92.89
47761;BME280;33524;55.434;38.520;2023-03-22T01:45:45;99805.81;;;2.89;93.58
47761;BME280;33524;55.434;38.520;2023-03-22T01:48:18;99808.13;;;2.78;93.75
47761;BME280;33524;55.434;38.520;2023-03-22T01:51:22;99809.34;;;2.88;92.81
47761;BME280;33524;55.434;38.520;2023-03-22T01:53:40;99814.97;;;2.79;93.66
47761;BME280;33524;55.434;38.520;2023-03-22T01:56:08;99815.12;;;2.76;92.93
47761;BME280;33524;55.434;38.520;2023-03-22T01:58:36;99826.97;;;2.64;95.20
47761;BME280;33524;55.434;38.520;2023-03-22T02:01:05;99825.66;;;2.73;94.38
47761;BME280;33524;55.434;38.520;2023-03-22T02:03:59;99841.09;;;2.76;94.46
47761;BME280;33524;55.434;38.520;2023-03-22T02:06:28;99832.84;;;2.85;93.29
47761;BME280;33524;55.434;38.520;2023-03-22T02:08:58;99838.81;;;2.70;95.13
47761;BME280;33524;55.434;38.520;2023-03-22T02:11:33;99841.09;;;2.76;95.10
47761;BME280;33524;55.434;38.520;2023-03-22T02:14:26;99825.59;;;2.74;95.49
47761;BME280;33524;55.434;38.520;2023-03-22T02:17:40;99809.19;;;2.56;96.00
47761;BME280;33524;55.434;38.520;2023-03-22T02:20:45;99839.56;;;2.72;96.44
47761;BME280;33524;55.434;38.520;2023-03-22T02:26:40;99834.37;;;2.72;96.18
47761;BME280;33524;55.434;38.520;2023-03-22T02:29:12;99845.06;;;2.83;95.82
47761;BME280;33524;55.434;38.520;2023-03-22T02:32:08;99845.06;;;2.83;95.54
47761;BME280;33524;55.434;38.520;2023-03-22T02:35:11;99847.28;;;2.73;96.21
47761;BME280;33524;55.434;38.520;2023-03-22T02:41:02;99853.63;;;2.68;97.31
47761;BME280;33524;55.434;38.520;2023-03-22T02:43:58;99855.44;;;2.66;97.76
47761;BME280;33524;55.434;38.520;2023-03-22T02:46:53;99856.44;;;2.63;97.04
47761;BME280;33524;55.434;38.520;2023-03-22T02:49:34;99852.31;;;2.59;97.60
47761;BME280;33524;55.434;38.520;2023-03-22T02:52:11;99864.91;;;2.67;97.15
47761;BME280;33524;55.434;38.520;2023-03-22T02:54:50;99867.19;;;2.73;96.62
47761;BME280;33524;55.434;38.520;2023-03-22T02:57:27;99868.44;;;2.66;96.99
47761;BME280;33524;55.434;38.520;2023-03-22T02:59:57;99862.94;;;2.54;98.64
47761;BME280;33524;55.434;38.520;2023-03-22T03:02:26;99862.00;;;2.73;96.56
47761;BME280;33524;55.434;38.520;2023-03-22T03:04:53;99871.97;;;2.82;95.82
47761;BME280;33524;55.434;38.520;2023-03-22T03:07:26;99855.09;;;2.73;95.15
47761;BME280;33524;55.434;38.520;2023-03-22T03:09:53;99875.75;;;2.75;96.08
47761;BME280;33524;55.434;38.520;2023-03-22T03:12:23;99882.28;;;2.83;95.19
47761;BME280;33524;55.434;38.520;2023-03-22T03:14:51;99883.41;;;2.78;96.03
47761;BME280;33524;55.434;38.520;2023-03-22T03:17:51;99881.53;;;2.81;95.77
47761;BME280;33524;55.434;38.520;2023-03-22T03:21:43;99880.00;;;2.77;95.39
47761;BME280;33524;55.434;38.520;2023-03-22T03:23:50;99893.66;;;2.81;94.20
47761;BME280;33524;55.434;38.520;2023-03-22T03:26:26;99894.13;;;2.89;94.27
47761;BME280;33524;55.434;38.520;2023-03-22T03:29:07;99890.56;;;2.92;94.07
47761;BME280;33524;55.434;38.520;2023-03-22T03:31:44;99898.41;;;2.90;93.76
47761;BME280;33524;55.434;38.520;2023-03-22T03:37:09;99902.97;;;2.85;94.50
47761;BME280;33524;55.434;38.520;2023-03-22T03:39:42;99906.78;;;2.78;95.72
47761;BME280;33524;55.434;38.520;2023-03-22T03:42:14;99898.84;;;2.81;95.29
47761;BME280;33524;55.434;38.520;2023-03-22T03:44:42;99909.87;;;2.86;94.89
47761;BME280;33524;55.434;38.520;2023-03-22T03:47:09;99911.22;;;2.93;94.56
47761;BME280;33524;55.434;38.520;2023-03-22T03:49:38;99919.97;;;2.92;94.93
47761;BME280;33524;55.434;38.520;2023-03-22T03:52:04;99915.66;;;2.91;95.11
47761;BME280;33524;55.434;38.520;2023-03-22T03:54:32;99920.25;;;2.86;95.79
47761;BME280;33524;55.434;38.520;2023-03-22T03:56:59;99923.38;;;2.93;95.50
47761;BME280;33524;55.434;38.520;2023-03-22T03:59:29;99925.66;;;2.81;96.91
47761;BME280;33524;55.434;38.520;2023-03-22T04:01:56;99903.91;;;2.84;95.44
47761;BME280;33524;55.434;38.520;2023-03-22T04:04:26;99931.19;;;2.93;96.08
47761;BME280;33524;55.434;38.520;2023-03-22T04:06:55;99938.59;;;3.00;95.19
47761;BME280;33524;55.434;38.520;2023-03-22T04:09:28;99941.34;;;2.97;95.68
47761;BME280;33524;55.434;38.520;2023-03-22T04:11:57;99933.72;;;2.94;95.73
47761;BME280;33524;55.434;38.520;2023-03-22T04:14:25;99941.81;;;3.06;95.06
47761;BME280;33524;55.434;38.520;2023-03-22T04:16:56;99949.19;;;3.15;94.61
47761;BME280;33524;55.434;38.520;2023-03-22T04:19:23;99945.50;;;3.19;94.40
47761;BME280;33524;55.434;38.520;2023-03-22T04:21:49;99949.00;;;3.18;94.45
47761;BME280;33524;55.434;38.520;2023-03-22T04:24:20;99957.97;;;3.30;92.91
47761;BME280;33524;55.434;38.520;2023-03-22T04:26:49;99954.22;;;3.35;92.09
47761;BME280;33524;55.434;38.520;2023-03-22T04:29:17;99962.87;;;3.36;92.57
47761;BME280;33524;55.434;38.520;2023-03-22T04:31:45;99963.47;;;3.41;92.82
47761;BME280;33524;55.434;38.520;2023-03-22T04:34:12;99964.84;;;3.48;92.33
47761;BME280;33524;55.434;38.520;2023-03-22T04:36:40;99969.06;;;3.51;92.29
47761;BME280;33524;55.434;38.520;2023-03-22T04:39:09;99972.78;;;3.45;93.29
47761;BME280;33524;55.434;38.520;2023-03-22T04:41:37;99973.03;;;3.40;93.37
47761;BME280;33524;55.434;38.520;2023-03-22T04:44:05;99973.19;;;3.55;93.09
47761;BME280;33524;55.434;38.520;2023-03-22T04:46:34;99978.06;;;3.61;92.62
47761;BME280;33524;55.434;38.520;2023-03-22T04:49:03;99976.16;;;3.64;92.50
47761;BME280;33524;55.434;38.520;2023-03-22T04:51:32;99977.19;;;3.62;92.74
47761;BME280;33524;55.434;38.520;2023-03-22T04:54:00;99963.84;;;3.51;92.51
47761;BME280;33524;55.434;38.520;2023-03-22T04:56:27;99987.94;;;3.72;92.29
47761;BME280;33524;55.434;38.520;2023-03-22T04:58:54;99995.91;;;3.69;92.09
47761;BME280;33524;55.434;38.520;2023-03-22T05:01:20;99999.03;;;3.75;91.75
47761;BME280;33524;55.434;38.520;2023-03-22T05:03:49;100005.00;;;3.60;92.14
47761;BME280;33524;55.434;38.520;2023-03-22T05:06:17;100006.25;;;3.70;91.65
47761;BME280;33524;55.434;38.520;2023-03-22T05:08:45;100004.53;;;3.69;91.55
47761;BME280;33524;55.434;38.520;2023-03-22T05:11:14;100011.19;;;3.75;91.30
47761;BME280;33524;55.434;38.520;2023-03-22T05:13:46;100014.50;;;3.78;91.31
47761;BME280;33524;55.434;38.520;2023-03-22T05:16:14;100016.63;;;3.88;90.66
47761;BME280;33524;55.434;38.520;2023-03-22T05:18:43;100013.25;;;3.86;90.61
47761;BME280;33524;55.434;38.520;2023-03-22T05:21:12;100022.66;;;3.88;90.10
47761;BME280;33524;55.434;38.520;2023-03-22T05:23:42;100022.31;;;3.78;90.46
47761;BME280;33524;55.434;38.520;2023-03-22T05:26:11;100025.81;;;3.77;90.33
47761;BME280;33524;55.434;38.520;2023-03-22T05:28:42;100024.28;;;3.56;91.64
47761;BME280;33524;55.434;38.520;2023-03-22T05:31:09;100024.59;;;3.50;91.70
47761;BME280;33524;55.434;38.520;2023-03-22T05:33:40;100037.31;;;3.37;92.53
47761;BME280;33524;55.434;38.520;2023-03-22T05:36:09;100031.31;;;3.54;92.05
47761;BME280;33524;55.434;38.520;2023-03-22T05:38:39;100026.59;;;3.62;91.08
47761;BME280;33524;55.434;38.520;2023-03-22T05:41:06;100039.66;;;3.78;91.56
47761;BME280;33524;55.434;38.520;2023-03-22T05:43:34;100043.25;;;3.93;91.11
47761;BME280;33524;55.434;38.520;2023-03-22T05:46:05;100040.37;;;4.15;90.80
47761;BME280;33524;55.434;38.520;2023-03-22T05:48:33;100039.34;;;4.35;90.79
47761;BME280;33524;55.434;38.520;2023-03-22T05:51:00;100045.19;;;4.56;90.19
47761;BME280;33524;55.434;38.520;2023-03-22T05:53:29;100038.06;;;4.59;89.76
47761;BME280;33524;55.434;38.520;2023-03-22T05:55:57;100043.47;;;4.72;89.30
47761;BME280;33524;55.434;38.520;2023-03-22T05:58:27;100046.09;;;4.88;88.27
47761;BME280;33524;55.434;38.520;2023-03-22T06:00:57;100049.00;;;4.98;88.30
47761;BME280;33524;55.434;38.520;2023-03-22T06:03:30;100051.03;;;5.09;86.96
47761;BME280;33524;55.434;38.520;2023-03-22T06:05:58;100050.03;;;5.11;86.38
47761;BME280;33524;55.434;38.520;2023-03-22T06:08:25;100057.69;;;4.98;86.46
47761;BME280;33524;55.434;38.520;2023-03-22T06:10:53;100049.88;;;4.98;85.92
47761;BME280;33524;55.434;38.520;2023-03-22T06:13:20;100054.56;;;5.08;85.80
47761;BME280;33524;55.434;38.520;2023-03-22T06:15:47;100047.75;;;5.05;85.62
47761;BME280;33524;55.434;38.520;2023-03-22T06:18:14;100057.00;;;5.11;85.17
47761;BME280;33524;55.434;38.520;2023-03-22T06:20:41;100064.06;;;5.09;85.38
47761;BME280;33524;55.434;38.520;2023-03-22T06:23:09;100065.47;;;5.14;85.04
47761;BME280;33524;55.434;38.520;2023-03-22T06:25:37;100066.75;;;5.23;84.62
47761;BME280;33524;55.434;38.520;2023-03-22T06:28:04;100064.19;;;5.37;83.79
47761;BME280;33524;55.434;38.520;2023-03-22T06:30:35;100068.56;;;5.53;82.96
47761;BME280;33524;55.434;38.520;2023-03-22T06:33:03;100062.25;;;5.41;82.37
47761;BME280;33524;55.434;38.520;2023-03-22T06:35:32;100069.81;;;5.61;82.17
47761;BME280;33524;55.434;38.520;2023-03-22T06:37:59;100073.91;;;5.65;81.63
47761;BME280;33524;55.434;38.520;2023-03-22T06:40:26;100077.34;;;5.66;81.39
47761;BME280;33524;55.434;38.520;2023-03-22T06:42:53;100086.34;;;5.46;81.56
47761;BME280;33524;55.434;38.520;2023-03-22T06:45:21;100085.81;;;5.39;81.33
47761;BME280;33524;55.434;38.520;2023-03-22T06:47:48;100087.31;;;5.43;81.43
47761;BME280;33524;55.434;38.520;2023-03-22T06:50:16;100082.56;;;5.66;81.13
47761;BME280;33524;55.434;38.520;2023-03-22T06:52:46;100091.06;;;5.85;80.38
47761;BME280;33524;55.434;38.520;2023-03-22T06:55:13;100083.03;;;5.89;80.18
47761;BME280;33524;55.434;38.520;2023-03-22T06:57:39;100091.75;;;6.03;79.07
47761;BME280;33524;55.434;38.520;2023-03-22T07:00:08;100090.94;;;6.03;78.57
47761;BME280;33524;55.434;38.520;2023-03-22T07:02:36;100093.53;;;5.73;79.58
47761;BME280;33524;55.434;38.520;2023-03-22T07:05:04;100090.25;;;5.69;79.70
47761;BME280;33524;55.434;38.520;2023-03-22T07:07:31;100101.66;;;5.52;80.30
47761;BME280;33524;55.434;38.520;2023-03-22T07:09:58;100095.47;;;4.74;84.62
47761;BME280;33524;55.434;38.520;2023-03-22T07:12:24;100098.22;;;5.36;82.70
47761;BME280;33524;55.434;38.520;2023-03-22T07:14:51;100099.13;;;5.35;82.60
47761;BME280;33524;55.434;38.520;2023-03-22T07:17:20;100095.75;;;5.49;81.92
47761;BME280;33524;55.434;38.520;2023-03-22T07:19:47;100100.72;;;5.05;84.16
47761;BME280;33524;55.434;38.520;2023-03-22T07:22:14;100104.81;;;4.78;84.86
47761;BME280;33524;55.434;38.520;2023-03-22T07:24:41;100084.41;;;4.86;83.64
47761;BME280;33524;55.434;38.520;2023-03-22T07:27:23;100111.97;;;5.06;82.52
47761;BME280;33524;55.434;38.520;2023-03-22T07:29:50;100112.13;;;4.87;84.02
47761;BME280;33524;55.434;38.520;2023-03-22T07:32:17;100120.91;;;4.69;84.63
47761;BME280;33524;55.434;38.520;2023-03-22T07:34:47;100124.59;;;4.64;85.17
47761;BME280;33524;55.434;38.520;2023-03-22T07:37:14;100128.94;;;4.48;86.24
47761;BME280;33524;55.434;38.520;2023-03-22T07:39:41;100128.63;;;4.19;88.56
47761;BME280;33524;55.434;38.520;2023-03-22T07:42:08;100129.84;;;4.30;87.46
47761;BME280;33524;55.434;38.520;2023-03-22T07:44:38;100137.06;;;3.90;89.70
47761;BME280;33524;55.434;38.520;2023-03-22T07:47:07;100135.87;;;3.60;92.03
47761;BME280;33524;55.434;38.520;2023-03-22T07:49:35;100139.66;;;3.90;91.09
47761;BME280;33524;55.434;38.520;2023-03-22T07:52:03;100119.06;;;3.31;93.79
47761;BME280;33524;55.434;38.520;2023-03-22T07:54:30;100141.78;;;3.64;93.14
47761;BME280;33524;55.434;38.520;2023-03-22T07:57:01;100154.97;;;3.78;92.88
47761;BME280;33524;55.434;38.520;2023-03-22T07:59:27;100146.09;;;4.17;91.24
47761;BME280;33524;55.434;38.520;2023-03-22T08:01:54;100157.88;;;4.42;89.71
47761;BME280;33524;55.434;38.520;2023-03-22T08:04:22;100154.81;;;4.51;88.98
47761;BME280;33524;55.434;38.520;2023-03-22T08:06:51;100158.50;;;4.47;89.12
47761;BME280;33524;55.434;38.520;2023-03-22T08:09:19;100163.94;;;4.42;89.70
47761;BME280;33524;55.434;38.520;2023-03-22T08:11:47;100175.03;;;4.11;91.19
47761;BME280;33524;55.434;38.520;2023-03-22T08:14:14;100178.97;;;3.83;93.56
47761;BME280;33524;55.434;38.520;2023-03-22T08:16:44;100183.00;;;3.91;93.94
47761;BME280;33524;55.434;38.520;2023-03-22T08:19:12;100176.56;;;3.98;93.17
47761;BME280;33524;55.434;38.520;2023-03-22T08:21:40;100174.25;;;4.09;91.76
47761;BME280;33524;55.434;38.520;2023-03-22T08:24:07;100182.22;;;3.89;92.77
47761;BME280;33524;55.434;38.520;2023-03-22T08:26:38;100181.00;;;3.96;93.12
47761;BME280;33524;55.434;38.520;2023-03-22T08:29:07;100177.03;;;4.41;90.43
47761;BME280;33524;55.434;38.520;2023-03-22T08:31:35;100180.78;;;4.35;90.08
47761;BME280;33524;55.434;38.520;2023-03-22T08:34:02;100187.91;;;4.32;90.32
47761;BME280;33524;55.434;38.520;2023-03-22T08:36:28;100197.47;;;3.77;93.34
47761;BME280;33524;55.434;38.520;2023-03-22T08:38:55;100182.91;;;3.92;93.68
47761;BME280;33524;55.434;38.520;2023-03-22T08:41:26;100179.13;;;4.34;91.70
47761;BME280;33524;55.434;38.520;2023-03-22T08:43:53;100187.75;;;4.70;89.77
47761;BME280;33524;55.434;38.520;2023-03-22T08:46:19;100187.75;;;5.03;88.52
47761;BME280;33524;55.434;38.520;2023-03-22T08:48:48;100195.19;;;5.26;87.48
47761;BME280;33524;55.434;38.520;2023-03-22T08:51:21;100185.34;;;5.63;85.83
47761;BME280;33524;55.434;38.520;2023-03-22T08:53:48;100187.44;;;5.89;84.34
47761;BME280;33524;55.434;38.520;2023-03-22T08:56:16;100188.06;;;6.24;82.38
47761;BME280;33524;55.434;38.520;2023-03-22T08:58:46;100192.31;;;6.41;80.38
47761;BME280;33524;55.434;38.520;2023-03-22T09:01:16;100183.88;;;6.66;79.46
47761;BME280;33524;55.434;38.520;2023-03-22T09:03:43;100187.34;;;6.81;79.26
47761;BME280;33524;55.434;38.520;2023-03-22T09:06:10;100185.13;;;7.03;77.74
47761;BME280;33524;55.434;38.520;2023-03-22T09:08:38;100187.16;;;7.13;76.95
47761;BME280;33524;55.434;38.520;2023-03-22T09:11:08;100183.69;;;7.26;75.13
47761;BME280;33524;55.434;38.520;2023-03-22T09:13:35;100189.81;;;7.40;73.56
47761;BME280;33524;55.434;38.520;2023-03-22T09:16:04;100189.19;;;7.36;73.44
47761;BME280;33524;55.434;38.520;2023-03-22T09:18:31;100189.69;;;7.14;73.74
47761;BME280;33524;55.434;38.520;2023-03-22T09:20:58;100189.50;;;7.03;74.43
47761;BME280;33524;55.434;38.520;2023-03-22T09:23:26;100197.06;;;7.07;73.23
47761;BME280;33524;55.434;38.520;2023-03-22T09:25:54;100186.78;;;6.90;73.80
47761;BME280;33524;55.434;38.520;2023-03-22T09:28:22;100200.31;;;6.82;74.17
47761;BME280;33524;55.434;38.520;2023-03-22T09:30:50;100173.22;;;6.69;74.22
47761;BME280;33524;55.434;38.520;2023-03-22T09:33:16;100197.09;;;6.63;75.33
47761;BME280;33524;55.434;38.520;2023-03-22T09:35:45;100191.50;;;6.55;75.56
47761;BME280;33524;55.434;38.520;2023-03-22T09:38:12;100201.31;;;6.51;75.36
47761;BME280;33524;55.434;38.520;2023-03-22T09:40:53;100202.78;;;6.41;75.74
47761;BME280;33524;55.434;38.520;2023-03-22T09:43:34;100209.69;;;6.56;74.67
47761;BME280;33524;55.434;38.520;2023-03-22T09:46:05;100202.06;;;6.67;74.31
47761;BME280;33524;55.434;38.520;2023-03-22T09:48:35;100218.72;;;6.81;73.54
47761;BME280;33524;55.434;38.520;2023-03-22T09:51:05;100213.28;;;6.84;74.25
47761;BME280;33524;55.434;38.520;2023-03-22T09:53:39;100219.63;;;6.94;72.71
47761;BME280;33524;55.434;38.520;2023-03-22T09:56:25;100219.19;;;7.16;71.71
47761;BME280;33524;55.434;38.520;2023-03-22T09:59:03;100213.00;;;7.32;71.16
47761;BME280;33524;55.434;38.520;2023-03-22T10:01:54;100216.28;;;7.77;69.94
47761;BME280;33524;55.434;38.520;2023-03-22T10:04:41;100216.13;;;8.07;69.14
47761;BME280;33524;55.434;38.520;2023-03-22T10:07:31;100214.53;;;8.32;67.48
47761;BME280;33524;55.434;38.520;2023-03-22T10:10:07;100216.69;;;8.65;64.78
47761;BME280;33524;55.434;38.520;2023-03-22T10:12:42;100216.19;;;8.85;63.67
47761;BME280;33524;55.434;38.520;2023-03-22T10:15:15;100217.88;;;8.99;62.26
47761;BME280;33524;55.434;38.520;2023-03-22T10:17:49;100208.50;;;8.57;62.59
47761;BME280;33524;55.434;38.520;2023-03-22T10:20:29;100213.66;;;8.84;62.06
47761;BME280;33524;55.434;38.520;2023-03-22T10:22:59;100224.28;;;9.08;61.11
47761;BME280;33524;55.434;38.520;2023-03-22T10:25:33;100213.56;;;8.73;61.01
47761;BME280;33524;55.434;38.520;2023-03-22T10:28:01;100213.16;;;8.79;60.92
47761;BME280;33524;55.434;38.520;2023-03-22T10:30:33;100210.13;;;8.85;61.42
47761;BME280;33524;55.434;38.520;2023-03-22T10:33:02;100203.09;;;8.73;61.60
47761;BME280;33524;55.434;38.520;2023-03-22T10:35:30;100209.16;;;8.60;64.28
47761;BME280;33524;55.434;38.520;2023-03-22T10:38:00;100211.78;;;8.60;62.08
47761;BME280;33524;55.434;38.520;2023-03-22T10:40:31;100207.03;;;8.65;62.01
47761;BME280;33524;55.434;38.520;2023-03-22T10:43:04;100209.69;;;8.25;61.52
47761;BME280;33524;55.434;38.520;2023-03-22T10:45:33;100208.31;;;8.33;61.58
47761;BME280;33524;55.434;38.520;2023-03-22T10:48:24;100205.75;;;7.78;63.03
47761;BME280;33524;55.434;38.520;2023-03-22T10:50:52;100190.09;;;8.04;62.60
47761;BME280;33524;55.434;38.520;2023-03-22T10:53:36;100197.84;;;8.85;61.08
47761;BME280;33524;55.434;38.520;2023-03-22T10:56:04;100199.25;;;9.41;59.16
47761;BME280;33524;55.434;38.520;2023-03-22T10:58:33;100203.28;;;9.08;59.67
47761;BME280;33524;55.434;38.520;2023-03-22T11:01:07;100204.13;;;8.83;60.12
47761;BME280;33524;55.434;38.520;2023-03-22T11:03:40;100197.38;;;8.53;61.42
47761;BME280;33524;55.434;38.520;2023-03-22T11:06:16;100205.47;;;8.50;61.56
47761;BME280;33524;55.434;38.520;2023-03-22T11:08:53;100198.94;;;8.56;61.99
47761;BME280;33524;55.434;38.520;2023-03-22T11:11:26;100198.44;;;8.63;61.85
47761;BME280;33524;55.434;38.520;2023-03-22T11:14:03;100204.41;;;8.65;61.78
47761;BME280;33524;55.434;38.520;2023-03-22T11:16:31;100203.44;;;8.41;62.16
47761;BME280;33524;55.434;38.520;2023-03-22T11:19:13;100206.06;;;8.41;62.56
47761;BME280;33524;55.434;38.520;2023-03-22T11:21:42;100209.69;;;8.38;62.70
47761;BME280;33524;55.434;38.520;2023-03-22T11:24:12;100204.62;;;8.50;61.87
47761;BME280;33524;55.434;38.520;2023-03-22T11:26:40;100213.56;;;8.33;62.43
47761;BME280;33524;55.434;38.520;2023-03-22T11:29:14;100212.06;;;8.16;63.09
47761;BME280;33524;55.434;38.520;2023-03-22T11:31:53;100210.47;;;7.59;64.50
47761;BME280;33524;55.434;38.520;2023-03-22T11:34:25;100207.25;;;7.68;64.83
47761;BME280;33524;55.434;38.520;2023-03-22T11:36:53;100207.28;;;7.54;65.10
47761;BME280;33524;55.434;38.520;2023-03-22T11:39:24;100207.28;;;7.54;65.29
47761;BME280;33524;55.434;38.520;2023-03-22T11:41:56;100211.69;;;7.53;65.36
47761;BME280;33524;55.434;38.520;2023-03-22T11:44:25;100213.94;;;7.45;65.47
47761;BME280;33524;55.434;38.520;2023-03-22T11:46:55;100207.22;;;7.26;65.97
47761;BME280;33524;55.434;38.520;2023-03-22T11:49:37;100205.75;;;7.22;66.30
47761;BME280;33524;55.434;38.520;2023-03-22T11:52:09;100219.34;;;7.27;66.99
47761;BME280;33524;55.434;38.520;2023-03-22T11:54:37;100206.09;;;7.31;66.25
47761;BME280;33524;55.434;38.520;2023-03-22T11:57:13;100205.28;;;7.30;66.69
47761;BME280;33524;55.434;38.520;2023-03-22T11:59:55;100204.25;;;7.33;66.96
47761;BME280;33524;55.434;38.520;2023-03-22T12:02:28;100207.50;;;7.36;67.26
47761;BME280;33524;55.434;38.520;2023-03-22T12:05:05;100191.50;;;7.55;67.37
47761;BME280;33524;55.434;38.520;2023-03-22T12:07:35;100204.81;;;7.79;66.83
47761;BME280;33524;55.434;38.520;2023-03-22T12:10:10;100203.25;;;7.89;66.58
47761;BME280;33524;55.434;38.520;2023-03-22T12:12:43;100191.72;;;7.79;65.68
47761;BME280;33524;55.434;38.520;2023-03-22T12:15:17;100204.13;;;7.90;65.35
47761;BME280;33524;55.434;38.520;2023-03-22T12:18:07;100197.03;;;8.05;65.14
47761;BME280;33524;55.434;38.520;2023-03-22T12:20:47;100202.87;;;8.36;64.34
47761;BME280;33524;55.434;38.520;2023-03-22T12:23:18;100192.38;;;8.50;63.93
47761;BME280;33524;55.434;38.520;2023-03-22T12:25:49;100194.16;;;8.50;63.81
47761;BME280;33524;55.434;38.520;2023-03-22T12:28:20;100179.34;;;8.61;63.60
47761;BME280;33524;55.434;38.520;2023-03-22T12:30:51;100187.53;;;8.69;63.10
47761;BME280;33524;55.434;38.520;2023-03-22T12:33:34;100189.66;;;8.64;63.17
47761;BME280;33524;55.434;38.520;2023-03-22T12:36:05;100182.63;;;8.52;63.55
47761;BME280;33524;55.434;38.520;2023-03-22T12:38:45;100192.31;;;8.37;64.26
47761;BME280;33524;55.434;38.520;2023-03-22T12:41:18;100185.53;;;8.20;64.68
47761;BME280;33524;55.434;38.520;2023-03-22T12:44:16;100184.53;;;7.96;65.36
47761;BME280;33524;55.434;38.520;2023-03-22T12:46:56;100178.28;;;7.71;66.19
47761;BME280;33524;55.434;38.520;2023-03-22T12:49:45;100194.78;;;7.59;66.76
47761;BME280;33524;55.434;38.520;2023-03-22T12:52:20;100176.59;;;7.28;67.01
47761;BME280;33524;55.434;38.520;2023-03-22T12:54:49;100186.94;;;7.44;67.48
47761;BME280;33524;55.434;38.520;2023-03-22T12:57:18;100189.63;;;7.57;67.52
47761;BME280;33524;55.434;38.520;2023-03-22T12:59:48;100194.16;;;7.68;67.06
47761;BME280;33524;55.434;38.520;2023-03-22T13:02:22;100187.91;;;7.71;66.56
47761;BME280;33524;55.434;38.520;2023-03-22T13:04:55;100189.87;;;7.67;66.74
47761;BME280;33524;55.434;38.520;2023-03-22T13:07:50;100196.81;;;7.54;67.08
47761;BME280;33524;55.434;38.520;2023-03-22T13:10:38;100193.78;;;7.33;67.60
47761;BME280;33524;55.434;38.520;2023-03-22T13:13:30;100184.72;;;7.24;67.79
47761;BME280;33524;55.434;38.520;2023-03-22T13:16:15;100185.94;;;7.18;68.10
47761;BME280;33524;55.434;38.520;2023-03-22T13:19:00;100185.19;;;7.16;68.16
47761;BME280;33524;55.434;38.520;2023-03-22T13:21:30;100190.50;;;7.15;68.42
47761;BME280;33524;55.434;38.520;2023-03-22T13:26:51;100184.75;;;6.95;69.04
47761;BME280;33524;55.434;38.520;2023-03-22T13:29:23;100193.78;;;6.90;69.33